sensor_id;sensor_type;location;lat;lon;timestamp;P1;durP1;ratioP1;P2;durP2;ratioP2
71655;SDS011;59497;48.798;8.816;2023-03-24T00:01:16;4.30;;;2.77;;
71655;SDS011;59497;48.798;8.816;2023-03-24T00:03:42;3.77;;;2.40;;
71655;SDS011;59497;48.798;8.816;2023-03-24T00:06:09;4.15;;;2.42;;
71655;SDS011;59497;48.798;8.816;2023-03-24T00:08:37;3.88;;;2.60;;
71655;SDS011;59497;48.798;8.816;2023-03-24T00:11:04;3.15;;;2.42;;
71655;SDS011;59497;48.798;8.816;2023-03-24T00:13:30;3.90;;;2.20;;
71655;SDS011;59497;48.798;8.816;2023-03-24T00:15:56;3.95;;;2.58;;
71655;SDS011;59497;48.798;8.816;2023-03-24T00:18:21;3.83;;;3.10;;
71655;SDS011;59497;48.798;8.816;2023-03-24T00:20:50;4.28;;;2.85;;
71655;SDS011;59497;48.798;8.816;2023-03-24T00:23:22;3.58;;;2.70;;
71655;SDS011;59497;48.798;8.816;2023-03-24T00:25:47;5.03;;;3.07;;
71655;SDS011;59497;48.798;8.816;2023-03-24T00:28:13;4.15;;;2.80;;
71655;SDS011;59497;48.798;8.816;2023-03-24T00:30:39;4.00;;;2.63;;
71655;SDS011;59497;48.798;8.816;2023-03-24T00:33:05;3.70;;;2.63;;
71655;SDS011;59497;48.798;8.816;2023-03-24T00:35:30;3.57;;;2.60;;
71655;SDS011;59497;48.798;8.816;2023-03-24T00:37:55;4.27;;;2.97;;
71655;SDS011;59497;48.798;8.816;2023-03-24T00:40:21;3.33;;;2.70;;
71655;SDS011;59497;48.798;8.816;2023-03-24T00:42:47;3.93;;;2.30;;
71655;SDS011;59497;48.798;8.816;2023-03-24T00:45:14;3.75;;;2.25;;
71655;SDS011;59497;48.798;8.816;2023-03-24T00:47:39;5.03;;;2.90;;
71655;SDS011;59497;48.798;8.816;2023-03-24T00:50:06;3.73;;;2.70;;
71655;SDS011;59497;48.798;8.816;2023-03-24T00:52:31;3.53;;;2.70;;
71655;SDS011;59497;48.798;8.816;2023-03-24T00:54:58;3.65;;;2.30;;
71655;SDS011;59497;48.798;8.816;2023-03-24T00:57:25;3.80;;;2.20;;
71655;SDS011;59497;48.798;8.816;2023-03-24T00:59:54;4.00;;;2.47;;
71655;SDS011;59497;48.798;8.816;2023-03-24T01:02:24;4.15;;;2.47;;
71655;SDS011;59497;48.798;8.816;2023-03-24T01:04:53;3.85;;;2.17;;
71655;SDS011;59497;48.798;8.816;2023-03-24T01:07:20;3.10;;;2.25;;
71655;SDS011;59497;48.798;8.816;2023-03-24T01:09:46;2.70;;;2.20;;
71655;SDS011;59497;48.798;8.816;2023-03-24T01:14:49;4.57;;;2.37;;
71655;SDS011;59497;48.798;8.816;2023-03-24T01:17:14;3.77;;;2.30;;
71655;SDS011;59497;48.798;8.816;2023-03-24T01:19:39;3.83;;;2.60;;
71655;SDS011;59497;48.798;8.816;2023-03-24T01:22:05;3.35;;;2.25;;
71655;SDS011;59497;48.798;8.816;2023-03-24T01:24:30;3.70;;;2.53;;
71655;SDS011;59497;48.798;8.816;2023-03-24T01:26:55;3.13;;;2.50;;
71655;SDS011;59497;48.798;8.816;2023-03-24T01:29:21;3.70;;;2.40;;
71655;SDS011;59497;48.798;8.816;2023-03-24T01:31:46;3.07;;;2.33;;
71655;SDS011;59497;48.798;8.816;2023-03-24T01:34:11;4.30;;;2.40;;
71655;SDS011;59497;48.798;8.816;2023-03-24T01:36:36;3.30;;;2.37;;
71655;SDS011;59497;48.798;8.816;2023-03-24T01:39:01;4.10;;;2.27;;
71655;SDS011;59497;48.798;8.816;2023-03-24T01:41:29;3.50;;;2.40;;
71655;SDS011;59497;48.798;8.816;2023-03-24T01:43:55;2.92;;;2.40;;
71655;SDS011;59497;48.798;8.816;2023-03-24T01:46:21;3.63;;;2.97;;
71655;SDS011;59497;48.798;8.816;2023-03-24T01:48:51;3.03;;;2.30;;
71655;SDS011;59497;48.798;8.816;2023-03-24T01:51:19;4.10;;;2.33;;
71655;SDS011;59497;48.798;8.816;2023-03-24T01:56:25;3.78;;;2.50;;
71655;SDS011;59497;48.798;8.816;2023-03-24T01:58:56;3.58;;;2.40;;
71655;SDS011;59497;48.798;8.816;2023-03-24T02:01:22;3.58;;;2.50;;
71655;SDS011;59497;48.798;8.816;2023-03-24T02:03:50;3.77;;;2.43;;
71655;SDS011;59497;48.798;8.816;2023-03-24T02:06:16;3.20;;;2.42;;
71655;SDS011;59497;48.798;8.816;2023-03-24T02:08:52;3.10;;;2.33;;
71655;SDS011;59497;48.798;8.816;2023-03-24T02:11:19;3.47;;;2.30;;
71655;SDS011;59497;48.798;8.816;2023-03-24T02:13:44;3.40;;;1.92;;
71655;SDS011;59497;48.798;8.816;2023-03-24T02:19:22;4.32;;;2.42;;
71655;SDS011;59497;48.798;8.816;2023-03-24T02:27:01;3.07;;;2.23;;
71655;SDS011;59497;48.798;8.816;2023-03-24T02:32:18;3.40;;;2.43;;
71655;SDS011;59497;48.798;8.816;2023-03-24T02:34:55;3.67;;;2.28;;
71655;SDS011;59497;48.798;8.816;2023-03-24T02:47:52;3.55;;;2.38;;
71655;SDS011;59497;48.798;8.816;2023-03-24T02:50:25;3.42;;;2.60;;
71655;SDS011;59497;48.798;8.816;2023-03-24T02:55:32;2.90;;;2.30;;
71655;SDS011;59497;48.798;8.816;2023-03-24T02:58:01;2.60;;;2.13;;
71655;SDS011;59497;48.798;8.816;2023-03-24T03:00:28;4.80;;;2.15;;
71655;SDS011;59497;48.798;8.816;2023-03-24T03:03:05;3.15;;;2.83;;
71655;SDS011;59497;48.798;8.816;2023-03-24T03:05:36;3.65;;;2.42;;
71655;SDS011;59497;48.798;8.816;2023-03-24T03:08:04;2.85;;;1.80;;
71655;SDS011;59497;48.798;8.816;2023-03-24T03:10:35;2.50;;;1.80;;
71655;SDS011;59497;48.798;8.816;2023-03-24T03:13:04;3.05;;;1.98;;
71655;SDS011;59497;48.798;8.816;2023-03-24T03:15:31;4.82;;;2.40;;
71655;SDS011;59497;48.798;8.816;2023-03-24T03:18:02;2.50;;;1.70;;
71655;SDS011;59497;48.798;8.816;2023-03-24T03:20:30;3.13;;;2.00;;
71655;SDS011;59497;48.798;8.816;2023-03-24T03:22:59;3.33;;;2.00;;
71655;SDS011;59497;48.798;8.816;2023-03-24T03:25:29;2.90;;;1.88;;
71655;SDS011;59497;48.798;8.816;2023-03-24T03:27:57;2.72;;;2.03;;
71655;SDS011;59497;48.798;8.816;2023-03-24T03:30:28;2.83;;;1.88;;
71655;SDS011;59497;48.798;8.816;2023-03-24T03:33:02;3.95;;;1.90;;
71655;SDS011;59497;48.798;8.816;2023-03-24T03:35:28;2.50;;;1.53;;
71655;SDS011;59497;48.798;8.816;2023-03-24T03:38:05;2.92;;;1.80;;
71655;SDS011;59497;48.798;8.816;2023-03-24T03:40:36;4.03;;;1.70;;
71655;SDS011;59497;48.798;8.816;2023-03-24T03:43:02;3.80;;;1.92;;
71655;SDS011;59497;48.798;8.816;2023-03-24T03:45:28;2.50;;;1.85;;
71655;SDS011;59497;48.798;8.816;2023-03-24T03:47:53;2.33;;;1.63;;
71655;SDS011;59497;48.798;8.816;2023-03-24T03:50:18;3.00;;;1.80;;
71655;SDS011;59497;48.798;8.816;2023-03-24T03:52:44;2.47;;;1.90;;
71655;SDS011;59497;48.798;8.816;2023-03-24T03:55:09;2.97;;;1.90;;
71655;SDS011;59497;48.798;8.816;2023-03-24T03:57:35;3.83;;;2.03;;
71655;SDS011;59497;48.798;8.816;2023-03-24T04:00:02;3.47;;;1.63;;
71655;SDS011;59497;48.798;8.816;2023-03-24T04:15:35;3.93;;;1.90;;
71655;SDS011;59497;48.798;8.816;2023-03-24T04:20:46;3.40;;;2.13;;
71655;SDS011;59497;48.798;8.816;2023-03-24T04:23:26;3.10;;;2.38;;
71655;SDS011;59497;48.798;8.816;2023-03-24T04:26:03;3.55;;;2.08;;
71655;SDS011;59497;48.798;8.816;2023-03-24T04:28:41;2.70;;;2.10;;
71655;SDS011;59497;48.798;8.816;2023-03-24T04:31:26;5.00;;;2.55;;
71655;SDS011;59497;48.798;8.816;2023-03-24T04:34:04;3.50;;;2.30;;
71655;SDS011;59497;48.798;8.816;2023-03-24T04:36:39;3.35;;;2.28;;
71655;SDS011;59497;48.798;8.816;2023-03-24T04:39:12;3.42;;;1.92;;
71655;SDS011;59497;48.798;8.816;2023-03-24T04:41:39;3.50;;;2.20;;
71655;SDS011;59497;48.798;8.816;2023-03-24T04:44:05;2.92;;;2.25;;
71655;SDS011;59497;48.798;8.816;2023-03-24T04:46:30;2.80;;;1.43;;
71655;SDS011;59497;48.798;8.816;2023-03-24T04:48:56;3.20;;;2.00;;
71655;SDS011;59497;48.798;8.816;2023-03-24T04:51:21;2.40;;;1.80;;
71655;SDS011;59497;48.798;8.816;2023-03-24T04:53:47;3.22;;;2.17;;
71655;SDS011;59497;48.798;8.816;2023-03-24T04:56:55;3.47;;;1.90;;
71655;SDS011;59497;48.798;8.816;2023-03-24T04:59:01;3.13;;;1.98;;
71655;SDS011;59497;48.798;8.816;2023-03-24T05:01:26;2.93;;;1.80;;
71655;SDS011;59497;48.798;8.816;2023-03-24T05:03:54;2.43;;;1.83;;
71655;SDS011;59497;48.798;8.816;2023-03-24T05:06:19;2.72;;;1.90;;
71655;SDS011;59497;48.798;8.816;2023-03-24T05:08:45;2.20;;;1.53;;
71655;SDS011;59497;48.798;8.816;2023-03-24T05:11:11;3.28;;;2.13;;
71655;SDS011;59497;48.798;8.816;2023-03-24T05:13:36;3.73;;;1.80;;
71655;SDS011;59497;48.798;8.816;2023-03-24T05:16:01;2.90;;;2.17;;
71655;SDS011;59497;48.798;8.816;2023-03-24T05:18:26;3.00;;;2.67;;
71655;SDS011;59497;48.798;8.816;2023-03-24T05:20:52;4.33;;;3.47;;
71655;SDS011;59497;48.798;8.816;2023-03-24T05:23:18;4.55;;;2.80;;
71655;SDS011;59497;48.798;8.816;2023-03-24T05:25:44;2.87;;;2.30;;
71655;SDS011;59497;48.798;8.816;2023-03-24T05:28:09;4.32;;;3.25;;
71655;SDS011;59497;48.798;8.816;2023-03-24T05:30:34;3.83;;;2.57;;
71655;SDS011;59497;48.798;8.816;2023-03-24T05:33:00;3.50;;;2.30;;
71655;SDS011;59497;48.798;8.816;2023-03-24T05:35:25;2.60;;;2.03;;
71655;SDS011;59497;48.798;8.816;2023-03-24T05:37:51;3.30;;;2.40;;
71655;SDS011;59497;48.798;8.816;2023-03-24T05:40:16;3.17;;;2.50;;
71655;SDS011;59497;48.798;8.816;2023-03-24T05:42:41;3.30;;;2.23;;
71655;SDS011;59497;48.798;8.816;2023-03-24T05:45:07;4.47;;;2.30;;
71655;SDS011;59497;48.798;8.816;2023-03-24T05:47:33;3.23;;;2.30;;
71655;SDS011;59497;48.798;8.816;2023-03-24T05:49:58;3.70;;;2.70;;
71655;SDS011;59497;48.798;8.816;2023-03-24T05:52:23;3.10;;;2.13;;
71655;SDS011;59497;48.798;8.816;2023-03-24T05:54:48;3.60;;;2.40;;
71655;SDS011;59497;48.798;8.816;2023-03-24T05:57:16;3.90;;;2.30;;
71655;SDS011;59497;48.798;8.816;2023-03-24T05:59:41;3.75;;;2.75;;
71655;SDS011;59497;48.798;8.816;2023-03-24T06:02:06;3.85;;;3.00;;
71655;SDS011;59497;48.798;8.816;2023-03-24T06:04:31;3.20;;;2.40;;
71655;SDS011;59497;48.798;8.816;2023-03-24T06:06:57;4.35;;;2.70;;
71655;SDS011;59497;48.798;8.816;2023-03-24T06:09:25;4.40;;;2.57;;
71655;SDS011;59497;48.798;8.816;2023-03-24T06:11:53;5.30;;;3.03;;
71655;SDS011;59497;48.798;8.816;2023-03-24T06:14:19;3.75;;;2.45;;
71655;SDS011;59497;48.798;8.816;2023-03-24T06:16:44;3.60;;;2.83;;
71655;SDS011;59497;48.798;8.816;2023-03-24T06:19:09;2.95;;;2.28;;
71655;SDS011;59497;48.798;8.816;2023-03-24T06:21:34;3.42;;;2.30;;
71655;SDS011;59497;48.798;8.816;2023-03-24T06:24:00;3.05;;;2.40;;
71655;SDS011;59497;48.798;8.816;2023-03-24T06:26:25;3.87;;;2.27;;
71655;SDS011;59497;48.798;8.816;2023-03-24T06:28:51;3.20;;;2.80;;
71655;SDS011;59497;48.798;8.816;2023-03-24T06:31:16;2.83;;;2.27;;
71655;SDS011;59497;48.798;8.816;2023-03-24T06:33:44;3.13;;;2.33;;
71655;SDS011;59497;48.798;8.816;2023-03-24T06:36:09;3.83;;;2.83;;
71655;SDS011;59497;48.798;8.816;2023-03-24T06:38:36;5.00;;;2.93;;
71655;SDS011;59497;48.798;8.816;2023-03-24T06:41:01;4.45;;;2.95;;
71655;SDS011;59497;48.798;8.816;2023-03-24T06:43:27;4.82;;;2.80;;
71655;SDS011;59497;48.798;8.816;2023-03-24T06:45:52;4.57;;;2.30;;
71655;SDS011;59497;48.798;8.816;2023-03-24T06:48:17;3.13;;;2.50;;
71655;SDS011;59497;48.798;8.816;2023-03-24T06:50:43;3.17;;;2.57;;
71655;SDS011;59497;48.798;8.816;2023-03-24T06:53:08;3.70;;;2.70;;
71655;SDS011;59497;48.798;8.816;2023-03-24T06:55:33;4.68;;;2.90;;
71655;SDS011;59497;48.798;8.816;2023-03-24T06:57:59;3.43;;;2.40;;
71655;SDS011;59497;48.798;8.816;2023-03-24T07:00:24;3.97;;;2.60;;
71655;SDS011;59497;48.798;8.816;2023-03-24T07:02:49;4.53;;;2.93;;
71655;SDS011;59497;48.798;8.816;2023-03-24T07:05:16;4.35;;;2.55;;
71655;SDS011;59497;48.798;8.816;2023-03-24T07:07:41;2.93;;;2.40;;
71655;SDS011;59497;48.798;8.816;2023-03-24T07:10:06;3.30;;;2.50;;
71655;SDS011;59497;48.798;8.816;2023-03-24T07:12:32;4.50;;;2.67;;
71655;SDS011;59497;48.798;8.816;2023-03-24T07:14:58;3.50;;;2.40;;
71655;SDS011;59497;48.798;8.816;2023-03-24T07:17:23;4.33;;;2.10;;
71655;SDS011;59497;48.798;8.816;2023-03-24T07:19:49;4.00;;;2.87;;
71655;SDS011;59497;48.798;8.816;2023-03-24T07:22:14;4.00;;;2.77;;
71655;SDS011;59497;48.798;8.816;2023-03-24T07:24:39;4.77;;;2.73;;
71655;SDS011;59497;48.798;8.816;2023-03-24T07:27:05;6.40;;;3.90;;
71655;SDS011;59497;48.798;8.816;2023-03-24T07:29:30;5.15;;;3.03;;
71655;SDS011;59497;48.798;8.816;2023-03-24T07:31:55;3.40;;;2.83;;
71655;SDS011;59497;48.798;8.816;2023-03-24T07:34:24;6.00;;;2.88;;
71655;SDS011;59497;48.798;8.816;2023-03-24T07:36:50;5.10;;;2.60;;
71655;SDS011;59497;48.798;8.816;2023-03-24T07:39:15;4.17;;;2.60;;
71655;SDS011;59497;48.798;8.816;2023-03-24T07:41:40;3.10;;;2.07;;
71655;SDS011;59497;48.798;8.816;2023-03-24T07:44:05;3.67;;;2.90;;
71655;SDS011;59497;48.798;8.816;2023-03-24T07:46:30;4.20;;;2.60;;
71655;SDS011;59497;48.798;8.816;2023-03-24T07:48:56;4.13;;;2.30;;
71655;SDS011;59497;48.798;8.816;2023-03-24T07:51:21;4.03;;;2.43;;
71655;SDS011;59497;48.798;8.816;2023-03-24T07:53:46;3.53;;;2.50;;
71655;SDS011;59497;48.798;8.816;2023-03-24T07:56:11;4.00;;;2.80;;
71655;SDS011;59497;48.798;8.816;2023-03-24T07:58:37;2.93;;;2.40;;
71655;SDS011;59497;48.798;8.816;2023-03-24T08:01:02;3.77;;;3.10;;
71655;SDS011;59497;48.798;8.816;2023-03-24T08:03:27;3.40;;;2.40;;
71655;SDS011;59497;48.798;8.816;2023-03-24T08:05:53;2.87;;;1.80;;
71655;SDS011;59497;48.798;8.816;2023-03-24T08:08:19;4.30;;;2.10;;
71655;SDS011;59497;48.798;8.816;2023-03-24T08:10:44;4.10;;;1.87;;
71655;SDS011;59497;48.798;8.816;2023-03-24T08:13:10;3.10;;;1.60;;
71655;SDS011;59497;48.798;8.816;2023-03-24T08:15:35;2.53;;;1.80;;
71655;SDS011;59497;48.798;8.816;2023-03-24T08:18:01;3.47;;;1.73;;
71655;SDS011;59497;48.798;8.816;2023-03-24T08:20:27;3.60;;;1.63;;
71655;SDS011;59497;48.798;8.816;2023-03-24T08:22:53;2.15;;;1.75;;
71655;SDS011;59497;48.798;8.816;2023-03-24T08:25:19;2.33;;;1.67;;
71655;SDS011;59497;48.798;8.816;2023-03-24T08:27:45;3.05;;;1.65;;
71655;SDS011;59497;48.798;8.816;2023-03-24T08:30:21;1.67;;;1.48;;
71655;SDS011;59497;48.798;8.816;2023-03-24T08:32:47;1.80;;;1.40;;
71655;SDS011;59497;48.798;8.816;2023-03-24T08:35:13;2.60;;;1.65;;
71655;SDS011;59497;48.798;8.816;2023-03-24T08:37:40;2.88;;;1.52;;
71655;SDS011;59497;48.798;8.816;2023-03-24T08:40:07;1.83;;;1.58;;
71655;SDS011;59497;48.798;8.816;2023-03-24T08:42:32;1.67;;;1.47;;
71655;SDS011;59497;48.798;8.816;2023-03-24T08:44:57;3.40;;;1.50;;
71655;SDS011;59497;48.798;8.816;2023-03-24T08:47:23;3.77;;;1.60;;
71655;SDS011;59497;48.798;8.816;2023-03-24T08:49:48;2.77;;;1.57;;
71655;SDS011;59497;48.798;8.816;2023-03-24T08:52:13;1.33;;;1.23;;
71655;SDS011;59497;48.798;8.816;2023-03-24T08:54:38;1.30;;;1.20;;
71655;SDS011;59497;48.798;8.816;2023-03-24T08:57:03;1.90;;;1.40;;
71655;SDS011;59497;48.798;8.816;2023-03-24T08:59:28;2.27;;;1.30;;
71655;SDS011;59497;48.798;8.816;2023-03-24T09:01:54;1.50;;;1.40;;
71655;SDS011;59497;48.798;8.816;2023-03-24T09:04:19;1.40;;;1.23;;
71655;SDS011;59497;48.798;8.816;2023-03-24T09:06:44;1.90;;;1.30;;
71655;SDS011;59497;48.798;8.816;2023-03-24T09:09:10;3.90;;;1.30;;
71655;SDS011;59497;48.798;8.816;2023-03-24T09:11:35;2.50;;;1.23;;
71655;SDS011;59497;48.798;8.816;2023-03-24T09:14:00;2.23;;;1.60;;
71655;SDS011;59497;48.798;8.816;2023-03-24T09:16:25;1.23;;;1.13;;
71655;SDS011;59497;48.798;8.816;2023-03-24T09:18:50;2.10;;;1.23;;
71655;SDS011;59497;48.798;8.816;2023-03-24T09:21:16;1.40;;;1.03;;
71655;SDS011;59497;48.798;8.816;2023-03-24T09:23:41;1.80;;;1.25;;
71655;SDS011;59497;48.798;8.816;2023-03-24T09:26:06;2.60;;;1.50;;
71655;SDS011;59497;48.798;8.816;2023-03-24T09:28:32;2.07;;;1.37;;
71655;SDS011;59497;48.798;8.816;2023-03-24T09:30:57;2.47;;;1.50;;
71655;SDS011;59497;48.798;8.816;2023-03-24T09:33:23;1.52;;;1.23;;
71655;SDS011;59497;48.798;8.816;2023-03-24T09:35:55;2.90;;;1.60;;
71655;SDS011;59497;48.798;8.816;2023-03-24T09:38:20;1.65;;;1.17;;
71655;SDS011;59497;48.798;8.816;2023-03-24T09:40:45;2.50;;;1.40;;
71655;SDS011;59497;48.798;8.816;2023-03-24T09:45:50;3.53;;;1.10;;
71655;SDS011;59497;48.798;8.816;2023-03-24T09:50:52;1.15;;;1.05;;
71655;SDS011;59497;48.798;8.816;2023-03-24T09:53:30;1.60;;;1.35;;
71655;SDS011;59497;48.798;8.816;2023-03-24T09:55:57;2.00;;;1.40;;
71655;SDS011;59497;48.798;8.816;2023-03-24T09:58:26;1.80;;;1.25;;
71655;SDS011;59497;48.798;8.816;2023-03-24T10:00:53;1.63;;;1.40;;
71655;SDS011;59497;48.798;8.816;2023-03-24T10:03:19;1.43;;;1.33;;
71655;SDS011;59497;48.798;8.816;2023-03-24T10:05:55;1.67;;;1.50;;
71655;SDS011;59497;48.798;8.816;2023-03-24T10:16:15;1.83;;;1.73;;
71655;SDS011;59497;48.798;8.816;2023-03-24T10:18:42;2.00;;;1.70;;
71655;SDS011;59497;48.798;8.816;2023-03-24T10:21:13;1.25;;;1.00;;
71655;SDS011;59497;48.798;8.816;2023-03-24T10:28:50;1.40;;;1.30;;
71655;SDS011;59497;48.798;8.816;2023-03-24T10:31:16;1.50;;;1.40;;
71655;SDS011;59497;48.798;8.816;2023-03-24T10:33:44;1.80;;;1.48;;
71655;SDS011;59497;48.798;8.816;2023-03-24T10:38:35;1.70;;;1.60;;
71655;SDS011;59497;48.798;8.816;2023-03-24T10:41:00;1.50;;;1.33;;
71655;SDS011;59497;48.798;8.816;2023-03-24T10:43:25;2.33;;;1.30;;
71655;SDS011;59497;48.798;8.816;2023-03-24T10:45:51;2.73;;;1.13;;
71655;SDS011;59497;48.798;8.816;2023-03-24T10:51:01;1.38;;;1.27;;
71655;SDS011;59497;48.798;8.816;2023-03-24T10:53:26;1.47;;;1.37;;
71655;SDS011;59497;48.798;8.816;2023-03-24T10:55:52;1.20;;;1.10;;
71655;SDS011;59497;48.798;8.816;2023-03-24T10:58:26;1.43;;;1.10;;
71655;SDS011;59497;48.798;8.816;2023-03-24T11:00:52;1.33;;;1.10;;
71655;SDS011;59497;48.798;8.816;2023-03-24T11:03:25;1.50;;;1.07;;
71655;SDS011;59497;48.798;8.816;2023-03-24T11:05:56;1.40;;;1.15;;
71655;SDS011;59497;48.798;8.816;2023-03-24T11:08:32;1.47;;;1.37;;
71655;SDS011;59497;48.798;8.816;2023-03-24T11:10:58;1.45;;;0.98;;
71655;SDS011;59497;48.798;8.816;2023-03-24T11:15:53;1.50;;;1.20;;
71655;SDS011;59497;48.798;8.816;2023-03-24T11:18:19;0.95;;;0.95;;
71655;SDS011;59497;48.798;8.816;2023-03-24T11:26:20;0.97;;;0.90;;
71655;SDS011;59497;48.798;8.816;2023-03-24T11:29:05;1.45;;;1.13;;
71655;SDS011;59497;48.798;8.816;2023-03-24T11:31:34;1.08;;;0.88;;
71655;SDS011;59497;48.798;8.816;2023-03-24T11:41:52;1.55;;;1.00;;
71655;SDS011;59497;48.798;8.816;2023-03-24T11:44:23;1.20;;;1.10;;
71655;SDS011;59497;48.798;8.816;2023-03-24T11:46:52;0.68;;;0.68;;
71655;SDS011;59497;48.798;8.816;2023-03-24T11:49:20;0.88;;;0.70;;
71655;SDS011;59497;48.798;8.816;2023-03-24T11:51:46;0.97;;;0.77;;
71655;SDS011;59497;48.798;8.816;2023-03-24T11:54:14;0.82;;;0.82;;
71655;SDS011;59497;48.798;8.816;2023-03-24T11:56:47;0.85;;;0.80;;
71655;SDS011;59497;48.798;8.816;2023-03-24T11:59:27;1.08;;;1.08;;
71655;SDS011;59497;48.798;8.816;2023-03-24T12:04:40;1.97;;;1.50;;
71655;SDS011;59497;48.798;8.816;2023-03-24T12:12:11;0.90;;;0.90;;
71655;SDS011;59497;48.798;8.816;2023-03-24T12:17:12;1.20;;;1.10;;
71655;SDS011;59497;48.798;8.816;2023-03-24T12:27:05;0.73;;;0.73;;
71655;SDS011;59497;48.798;8.816;2023-03-24T12:29:39;1.13;;;0.85;;
71655;SDS011;59497;48.798;8.816;2023-03-24T12:34:41;1.48;;;0.93;;
71655;SDS011;59497;48.798;8.816;2023-03-24T12:37:25;0.80;;;0.50;;
71655;SDS011;59497;48.798;8.816;2023-03-24T12:42:41;0.98;;;0.70;;
71655;SDS011;59497;48.798;8.816;2023-03-24T12:47:55;0.80;;;0.75;;
71655;SDS011;59497;48.798;8.816;2023-03-24T12:53:18;0.80;;;0.60;;
71655;SDS011;59497;48.798;8.816;2023-03-24T12:55:50;0.63;;;0.63;;
71655;SDS011;59497;48.798;8.816;2023-03-24T13:00:49;0.50;;;0.50;;
71655;SDS011;59497;48.798;8.816;2023-03-24T13:03:18;0.60;;;0.60;;
71655;SDS011;59497;48.798;8.816;2023-03-24T13:05:48;0.20;;;0.20;;
71655;SDS011;59497;48.798;8.816;2023-03-24T13:08:16;0.50;;;0.47;;
71655;SDS011;59497;48.798;8.816;2023-03-24T13:10:43;0.40;;;0.40;;
71655;SDS011;59497;48.798;8.816;2023-03-24T13:20:48;0.40;;;0.40;;
71655;SDS011;59497;48.798;8.816;2023-03-24T13:23:23;0.50;;;0.40;;
71655;SDS011;59497;48.798;8.816;2023-03-24T13:25:52;0.93;;;0.82;;
71655;SDS011;59497;48.798;8.816;2023-03-24T13:28:22;0.55;;;0.55;;
71655;SDS011;59497;48.798;8.816;2023-03-24T13:30:48;0.52;;;0.50;;
71655;SDS011;59497;48.798;8.816;2023-03-24T13:33:19;1.07;;;0.60;;
71655;SDS011;59497;48.798;8.816;2023-03-24T13:36:08;2.42;;;0.70;;
71655;SDS011;59497;48.798;8.816;2023-03-24T13:38:45;2.30;;;0.50;;
71655;SDS011;59497;48.798;8.816;2023-03-24T13:41:12;0.98;;;0.50;;
71655;SDS011;59497;48.798;8.816;2023-03-24T13:43:45;2.53;;;0.70;;
71655;SDS011;59497;48.798;8.816;2023-03-24T13:46:11;0.40;;;0.40;;
71655;SDS011;59497;48.798;8.816;2023-03-24T13:48:37;1.48;;;0.77;;
71655;SDS011;59497;48.798;8.816;2023-03-24T13:53:37;2.03;;;0.77;;
71655;SDS011;59497;48.798;8.816;2023-03-24T13:56:03;1.83;;;0.88;;
71655;SDS011;59497;48.798;8.816;2023-03-24T13:58:49;0.90;;;0.50;;
71655;SDS011;59497;48.798;8.816;2023-03-24T14:01:29;1.65;;;0.52;;
71655;SDS011;59497;48.798;8.816;2023-03-24T14:06:46;1.00;;;0.65;;
71655;SDS011;59497;48.798;8.816;2023-03-24T14:09:30;0.55;;;0.40;;
71655;SDS011;59497;48.798;8.816;2023-03-24T14:14:28;1.65;;;0.40;;
71655;SDS011;59497;48.798;8.816;2023-03-24T14:19:29;1.15;;;0.50;;
71655;SDS011;59497;48.798;8.816;2023-03-24T14:21:57;0.60;;;0.30;;
71655;SDS011;59497;48.798;8.816;2023-03-24T14:24:24;0.30;;;0.30;;
71655;SDS011;59497;48.798;8.816;2023-03-24T14:26:50;3.20;;;0.30;;
71655;SDS011;59497;48.798;8.816;2023-03-24T14:29:32;1.43;;;0.33;;
71655;SDS011;59497;48.798;8.816;2023-03-24T14:32:01;1.48;;;0.35;;
71655;SDS011;59497;48.798;8.816;2023-03-24T14:34:27;0.80;;;0.47;;
71655;SDS011;59497;48.798;8.816;2023-03-24T14:36:59;0.60;;;0.27;;
71655;SDS011;59497;48.798;8.816;2023-03-24T14:39:40;0.90;;;0.30;;
71655;SDS011;59497;48.798;8.816;2023-03-24T14:44:51;0.80;;;0.63;;
71655;SDS011;59497;48.798;8.816;2023-03-24T14:47:24;1.45;;;0.40;;
71655;SDS011;59497;48.798;8.816;2023-03-24T14:49:50;3.80;;;0.60;;
71655;SDS011;59497;48.798;8.816;2023-03-24T14:52:20;0.70;;;0.43;;
71655;SDS011;59497;48.798;8.816;2023-03-24T14:54:49;1.27;;;0.60;;
71655;SDS011;59497;48.798;8.816;2023-03-24T14:57:28;1.02;;;0.30;;
71655;SDS011;59497;48.798;8.816;2023-03-24T14:59:59;1.38;;;0.47;;
71655;SDS011;59497;48.798;8.816;2023-03-24T15:02:31;0.90;;;0.57;;
71655;SDS011;59497;48.798;8.816;2023-03-24T15:07:37;2.33;;;0.25;;
71655;SDS011;59497;48.798;8.816;2023-03-24T15:10:03;0.50;;;0.40;;
71655;SDS011;59497;48.798;8.816;2023-03-24T15:12:28;0.80;;;0.57;;
71655;SDS011;59497;48.798;8.816;2023-03-24T15:14:53;1.60;;;0.60;;
71655;SDS011;59497;48.798;8.816;2023-03-24T15:17:21;0.40;;;0.40;;
71655;SDS011;59497;48.798;8.816;2023-03-24T15:19:51;0.50;;;0.40;;
71655;SDS011;59497;48.798;8.816;2023-03-24T15:22:16;0.50;;;0.30;;
71655;SDS011;59497;48.798;8.816;2023-03-24T15:24:45;0.57;;;0.50;;
71655;SDS011;59497;48.798;8.816;2023-03-24T15:27:18;0.83;;;0.73;;
71655;SDS011;59497;48.798;8.816;2023-03-24T15:29:44;1.33;;;0.57;;
71655;SDS011;59497;48.798;8.816;2023-03-24T15:32:17;1.42;;;0.40;;
71655;SDS011;59497;48.798;8.816;2023-03-24T15:34:47;0.50;;;0.50;;
71655;SDS011;59497;48.798;8.816;2023-03-24T15:37:21;0.40;;;0.30;;
71655;SDS011;59497;48.798;8.816;2023-03-24T15:39:48;0.60;;;0.60;;
71655;SDS011;59497;48.798;8.816;2023-03-24T15:42:14;1.17;;;0.40;;
71655;SDS011;59497;48.798;8.816;2023-03-24T15:44:41;0.85;;;0.40;;
71655;SDS011;59497;48.798;8.816;2023-03-24T15:47:13;1.10;;;0.70;;
71655;SDS011;59497;48.798;8.816;2023-03-24T15:49:45;1.00;;;0.50;;
71655;SDS011;59497;48.798;8.816;2023-03-24T15:52:30;0.90;;;0.55;;
71655;SDS011;59497;48.798;8.816;2023-03-24T15:54:58;1.00;;;0.75;;
71655;SDS011;59497;48.798;8.816;2023-03-24T15:57:23;0.90;;;0.60;;
71655;SDS011;59497;48.798;8.816;2023-03-24T16:00:02;0.50;;;0.40;;
71655;SDS011;59497;48.798;8.816;2023-03-24T16:02:40;0.85;;;0.47;;
71655;SDS011;59497;48.798;8.816;2023-03-24T16:05:28;0.80;;;0.32;;
71655;SDS011;59497;48.798;8.816;2023-03-24T16:08:02;0.70;;;0.60;;
71655;SDS011;59497;48.798;8.816;2023-03-24T16:10:41;2.65;;;0.50;;
71655;SDS011;59497;48.798;8.816;2023-03-24T16:13:16;0.68;;;0.43;;
71655;SDS011;59497;48.798;8.816;2023-03-24T16:15:53;0.68;;;0.28;;
71655;SDS011;59497;48.798;8.816;2023-03-24T16:18:20;0.70;;;0.40;;
71655;SDS011;59497;48.798;8.816;2023-03-24T16:20:46;1.33;;;0.50;;
71655;SDS011;59497;48.798;8.816;2023-03-24T16:23:12;1.03;;;0.60;;
71655;SDS011;59497;48.798;8.816;2023-03-24T16:25:37;1.40;;;0.45;;
71655;SDS011;59497;48.798;8.816;2023-03-24T16:28:02;1.43;;;0.57;;
71655;SDS011;59497;48.798;8.816;2023-03-24T16:30:28;1.00;;;0.50;;
71655;SDS011;59497;48.798;8.816;2023-03-24T16:32:54;1.38;;;0.50;;
71655;SDS011;59497;48.798;8.816;2023-03-24T16:35:20;1.60;;;0.50;;
71655;SDS011;59497;48.798;8.816;2023-03-24T16:37:45;0.40;;;0.30;;
71655;SDS011;59497;48.798;8.816;2023-03-24T16:40:17;1.92;;;0.40;;
71655;SDS011;59497;48.798;8.816;2023-03-24T16:42:43;0.88;;;0.47;;
71655;SDS011;59497;48.798;8.816;2023-03-24T16:45:09;2.10;;;1.20;;
71655;SDS011;59497;48.798;8.816;2023-03-24T16:47:34;0.97;;;0.60;;
71655;SDS011;59497;48.798;8.816;2023-03-24T16:49:59;1.13;;;0.63;;
71655;SDS011;59497;48.798;8.816;2023-03-24T16:52:25;0.60;;;0.60;;
71655;SDS011;59497;48.798;8.816;2023-03-24T16:54:50;1.20;;;0.50;;
71655;SDS011;59497;48.798;8.816;2023-03-24T16:57:15;2.20;;;0.60;;
71655;SDS011;59497;48.798;8.816;2023-03-24T16:59:40;1.33;;;0.70;;
71655;SDS011;59497;48.798;8.816;2023-03-24T17:02:07;0.95;;;0.60;;
71655;SDS011;59497;48.798;8.816;2023-03-24T17:04:33;0.93;;;0.80;;
71655;SDS011;59497;48.798;8.816;2023-03-24T17:06:59;1.00;;;0.55;;
71655;SDS011;59497;48.798;8.816;2023-03-24T17:09:24;0.77;;;0.67;;
71655;SDS011;59497;48.798;8.816;2023-03-24T17:11:51;2.00;;;0.80;;